sensor_id;sensor_type;location;lat;lon;timestamp;P1;durP1;ratioP1;P2;durP2;ratioP2
59649;SDS011;46162;57.568;25.814;2022-07-23T00:02:11;17.05;;;7.00;;
59649;SDS011;46162;57.568;25.814;2022-07-23T00:04:40;22.00;;;7.30;;
59649;SDS011;46162;57.568;25.814;2022-07-23T00:07:08;23.05;;;6.35;;
59649;SDS011;46162;57.568;25.814;2022-07-23T00:09:37;24.80;;;5.97;;
59649;SDS011;46162;57.568;25.814;2022-07-23T00:12:07;30.08;;;6.85;;
59649;SDS011;46162;57.568;25.814;2022-07-23T00:14:36;24.88;;;5.55;;
59649;SDS011;46162;57.568;25.814;2022-07-23T00:17:05;28.85;;;6.30;;
59649;SDS011;46162;57.568;25.814;2022-07-23T00:19:34;25.48;;;5.45;;
59649;SDS011;46162;57.568;25.814;2022-07-23T00:22:03;26.42;;;6.15;;
59649;SDS011;46162;57.568;25.814;2022-07-23T00:24:31;30.77;;;6.25;;
59649;SDS011;46162;57.568;25.814;2022-07-23T00:27:00;18.42;;;5.80;;
59649;SDS011;46162;57.568;25.814;2022-07-23T00:29:30;32.33;;;6.00;;
59649;SDS011;46162;57.568;25.814;2022-07-23T00:31:59;21.52;;;5.30;;
59649;SDS011;46162;57.568;25.814;2022-07-23T00:34:28;19.92;;;6.93;;
59649;SDS011;46162;57.568;25.814;2022-07-23T00:36:57;19.98;;;4.93;;
59649;SDS011;46162;57.568;25.814;2022-07-23T00:39:25;13.23;;;4.82;;
59649;SDS011;46162;57.568;25.814;2022-07-23T00:41:55;27.67;;;5.75;;
59649;SDS011;46162;57.568;25.814;2022-07-23T00:44:24;14.50;;;4.50;;
59649;SDS011;46162;57.568;25.814;2022-07-23T00:46:56;22.60;;;5.45;;
59649;SDS011;46162;57.568;25.814;2022-07-23T00:49:26;19.92;;;5.38;;
59649;SDS011;46162;57.568;25.814;2022-07-23T00:51:56;19.23;;;6.13;;
59649;SDS011;46162;57.568;25.814;2022-07-23T00:54:25;13.50;;;5.35;;
59649;SDS011;46162;57.568;25.814;2022-07-23T00:56:55;26.00;;;5.93;;
59649;SDS011;46162;57.568;25.814;2022-07-23T00:59:24;26.75;;;5.38;;
59649;SDS011;46162;57.568;25.814;2022-07-23T01:01:53;20.08;;;5.35;;
59649;SDS011;46162;57.568;25.814;2022-07-23T01:04:23;22.95;;;4.68;;
59649;SDS011;46162;57.568;25.814;2022-07-23T01:06:52;20.50;;;4.95;;
59649;SDS011;46162;57.568;25.814;2022-07-23T01:09:21;22.58;;;5.65;;
59649;SDS011;46162;57.568;25.814;2022-07-23T01:11:50;24.77;;;5.43;;
59649;SDS011;46162;57.568;25.814;2022-07-23T01:14:19;21.45;;;5.38;;
59649;SDS011;46162;57.568;25.814;2022-07-23T01:16:49;14.20;;;5.10;;
59649;SDS011;46162;57.568;25.814;2022-07-23T01:19:18;18.00;;;5.63;;
59649;SDS011;46162;57.568;25.814;2022-07-23T01:21:49;15.73;;;5.13;;
59649;SDS011;46162;57.568;25.814;2022-07-23T01:24:20;30.65;;;6.22;;
59649;SDS011;46162;57.568;25.814;2022-07-23T01:27:02;26.63;;;5.65;;
59649;SDS011;46162;57.568;25.814;2022-07-23T01:29:35;22.50;;;5.75;;
59649;SDS011;46162;57.568;25.814;2022-07-23T01:32:09;16.42;;;5.80;;
59649;SDS011;46162;57.568;25.814;2022-07-23T01:34:38;17.65;;;5.82;;
59649;SDS011;46162;57.568;25.814;2022-07-23T01:37:08;16.42;;;5.35;;
59649;SDS011;46162;57.568;25.814;2022-07-23T01:39:38;16.30;;;5.30;;
59649;SDS011;46162;57.568;25.814;2022-07-23T01:42:07;26.40;;;6.40;;
59649;SDS011;46162;57.568;25.814;2022-07-23T01:44:36;34.25;;;6.50;;
59649;SDS011;46162;57.568;25.814;2022-07-23T01:47:08;39.88;;;6.75;;
59649;SDS011;46162;57.568;25.814;2022-07-23T01:49:37;39.90;;;6.70;;
59649;SDS011;46162;57.568;25.814;2022-07-23T01:52:24;38.47;;;7.03;;
59649;SDS011;46162;57.568;25.814;2022-07-23T01:54:54;33.30;;;6.55;;
59649;SDS011;46162;57.568;25.814;2022-07-23T01:57:23;39.45;;;7.53;;
59649;SDS011;46162;57.568;25.814;2022-07-23T01:59:51;31.75;;;5.72;;
59649;SDS011;46162;57.568;25.814;2022-07-23T02:02:21;28.50;;;5.72;;
59649;SDS011;46162;57.568;25.814;2022-07-23T02:04:50;43.38;;;6.47;;
59649;SDS011;46162;57.568;25.814;2022-07-23T02:07:20;26.70;;;5.80;;
59649;SDS011;46162;57.568;25.814;2022-07-23T02:09:50;28.77;;;5.63;;
59649;SDS011;46162;57.568;25.814;2022-07-23T02:12:21;29.00;;;5.80;;
59649;SDS011;46162;57.568;25.814;2022-07-23T02:14:49;25.10;;;6.13;;
59649;SDS011;46162;57.568;25.814;2022-07-23T02:17:18;26.73;;;6.30;;
59649;SDS011;46162;57.568;25.814;2022-07-23T02:19:47;24.08;;;5.70;;
59649;SDS011;46162;57.568;25.814;2022-07-23T02:22:15;24.02;;;6.80;;
59649;SDS011;46162;57.568;25.814;2022-07-23T02:24:44;19.70;;;6.53;;
59649;SDS011;46162;57.568;25.814;2022-07-23T02:27:13;28.65;;;7.20;;
59649;SDS011;46162;57.568;25.814;2022-07-23T02:29:44;16.42;;;7.15;;
59649;SDS011;46162;57.568;25.814;2022-07-23T02:32:13;20.38;;;7.20;;
59649;SDS011;46162;57.568;25.814;2022-07-23T02:34:43;24.97;;;7.83;;
59649;SDS011;46162;57.568;25.814;2022-07-23T02:37:12;21.65;;;7.22;;
59649;SDS011;46162;57.568;25.814;2022-07-23T02:39:41;28.58;;;7.20;;
59649;SDS011;46162;57.568;25.814;2022-07-23T02:42:11;16.65;;;6.57;;
59649;SDS011;46162;57.568;25.814;2022-07-23T02:44:40;19.50;;;7.60;;
59649;SDS011;46162;57.568;25.814;2022-07-23T02:47:10;24.23;;;7.65;;
59649;SDS011;46162;57.568;25.814;2022-07-23T02:49:39;16.60;;;7.43;;
59649;SDS011;46162;57.568;25.814;2022-07-23T02:52:08;16.30;;;7.80;;
59649;SDS011;46162;57.568;25.814;2022-07-23T02:54:38;16.33;;;7.15;;
59649;SDS011;46162;57.568;25.814;2022-07-23T02:57:06;9.63;;;6.57;;
59649;SDS011;46162;57.568;25.814;2022-07-23T02:59:35;24.25;;;8.05;;
59649;SDS011;46162;57.568;25.814;2022-07-23T03:02:04;13.98;;;6.63;;
59649;SDS011;46162;57.568;25.814;2022-07-23T03:04:34;25.88;;;7.43;;
59649;SDS011;46162;57.568;25.814;2022-07-23T03:07:03;14.90;;;7.70;;
59649;SDS011;46162;57.568;25.814;2022-07-23T03:09:32;18.73;;;7.70;;
59649;SDS011;46162;57.568;25.814;2022-07-23T03:12:01;16.40;;;8.48;;
59649;SDS011;46162;57.568;25.814;2022-07-23T03:14:33;18.02;;;8.27;;
59649;SDS011;46162;57.568;25.814;2022-07-23T03:17:02;18.10;;;8.20;;
59649;SDS011;46162;57.568;25.814;2022-07-23T03:19:31;20.20;;;8.38;;
59649;SDS011;46162;57.568;25.814;2022-07-23T03:22:02;15.13;;;8.98;;
59649;SDS011;46162;57.568;25.814;2022-07-23T03:24:31;21.83;;;9.73;;
59649;SDS011;46162;57.568;25.814;2022-07-23T03:27:14;15.38;;;8.45;;
59649;SDS011;46162;57.568;25.814;2022-07-23T03:29:43;21.95;;;9.35;;
59649;SDS011;46162;57.568;25.814;2022-07-23T03:32:13;20.70;;;9.38;;
59649;SDS011;46162;57.568;25.814;2022-07-23T03:34:42;14.25;;;8.18;;
59649;SDS011;46162;57.568;25.814;2022-07-23T03:37:13;19.08;;;9.50;;
59649;SDS011;46162;57.568;25.814;2022-07-23T03:42:11;18.33;;;8.13;;
59649;SDS011;46162;57.568;25.814;2022-07-23T03:44:40;19.30;;;9.18;;
59649;SDS011;46162;57.568;25.814;2022-07-23T03:47:09;18.45;;;8.55;;
59649;SDS011;46162;57.568;25.814;2022-07-23T03:49:38;18.33;;;8.32;;
59649;SDS011;46162;57.568;25.814;2022-07-23T03:52:08;15.55;;;8.88;;
59649;SDS011;46162;57.568;25.814;2022-07-23T03:54:38;14.02;;;7.90;;
59649;SDS011;46162;57.568;25.814;2022-07-23T03:57:07;17.65;;;9.18;;
59649;SDS011;46162;57.568;25.814;2022-07-23T03:59:36;15.75;;;8.15;;
59649;SDS011;46162;57.568;25.814;2022-07-23T04:02:05;15.32;;;8.40;;
59649;SDS011;46162;57.568;25.814;2022-07-23T04:04:34;16.15;;;8.43;;
59649;SDS011;46162;57.568;25.814;2022-07-23T04:07:02;18.20;;;8.70;;
59649;SDS011;46162;57.568;25.814;2022-07-23T04:09:32;15.60;;;8.13;;
59649;SDS011;46162;57.568;25.814;2022-07-23T04:12:02;20.75;;;8.02;;
59649;SDS011;46162;57.568;25.814;2022-07-23T04:14:32;16.77;;;8.35;;
59649;SDS011;46162;57.568;25.814;2022-07-23T04:17:01;16.00;;;8.07;;
59649;SDS011;46162;57.568;25.814;2022-07-23T04:19:30;13.23;;;7.75;;
59649;SDS011;46162;57.568;25.814;2022-07-23T04:22:03;14.15;;;7.45;;
59649;SDS011;46162;57.568;25.814;2022-07-23T04:24:34;15.85;;;8.50;;
59649;SDS011;46162;57.568;25.814;2022-07-23T04:27:05;15.50;;;9.00;;
59649;SDS011;46162;57.568;25.814;2022-07-23T04:29:33;14.23;;;8.55;;
59649;SDS011;46162;57.568;25.814;2022-07-23T04:32:03;14.65;;;8.15;;
59649;SDS011;46162;57.568;25.814;2022-07-23T04:34:33;15.93;;;8.55;;
59649;SDS011;46162;57.568;25.814;2022-07-23T04:37:02;15.43;;;8.00;;
59649;SDS011;46162;57.568;25.814;2022-07-23T04:39:31;15.43;;;8.10;;
59649;SDS011;46162;57.568;25.814;2022-07-23T04:42:00;16.65;;;9.68;;
59649;SDS011;46162;57.568;25.814;2022-07-23T04:44:32;17.60;;;9.32;;
59649;SDS011;46162;57.568;25.814;2022-07-23T04:47:03;18.15;;;9.02;;
59649;SDS011;46162;57.568;25.814;2022-07-23T04:49:32;18.27;;;9.60;;
59649;SDS011;46162;57.568;25.814;2022-07-23T04:52:01;18.98;;;9.88;;
59649;SDS011;46162;57.568;25.814;2022-07-23T04:54:30;16.38;;;9.45;;
59649;SDS011;46162;57.568;25.814;2022-07-23T04:56:59;17.13;;;10.57;;
59649;SDS011;46162;57.568;25.814;2022-07-23T04:59:31;18.83;;;10.55;;
59649;SDS011;46162;57.568;25.814;2022-07-23T05:02:03;19.15;;;10.93;;
59649;SDS011;46162;57.568;25.814;2022-07-23T05:04:32;16.52;;;10.65;;
59649;SDS011;46162;57.568;25.814;2022-07-23T05:07:02;23.38;;;11.27;;
59649;SDS011;46162;57.568;25.814;2022-07-23T05:09:32;18.03;;;12.07;;
59649;SDS011;46162;57.568;25.814;2022-07-23T05:12:01;19.55;;;12.07;;
59649;SDS011;46162;57.568;25.814;2022-07-23T05:14:33;19.48;;;12.07;;
59649;SDS011;46162;57.568;25.814;2022-07-23T05:17:01;22.08;;;11.63;;
59649;SDS011;46162;57.568;25.814;2022-07-23T05:19:30;17.88;;;12.02;;
59649;SDS011;46162;57.568;25.814;2022-07-23T05:21:59;14.85;;;10.02;;
59649;SDS011;46162;57.568;25.814;2022-07-23T05:24:28;17.02;;;11.25;;
59649;SDS011;46162;57.568;25.814;2022-07-23T05:26:57;15.70;;;10.73;;
59649;SDS011;46162;57.568;25.814;2022-07-23T05:29:26;15.40;;;10.38;;
59649;SDS011;46162;57.568;25.814;2022-07-23T05:31:57;15.68;;;10.20;;
59649;SDS011;46162;57.568;25.814;2022-07-23T05:34:27;19.80;;;10.95;;
59649;SDS011;46162;57.568;25.814;2022-07-23T05:36:58;15.07;;;10.60;;
59649;SDS011;46162;57.568;25.814;2022-07-23T05:39:27;14.43;;;10.13;;
59649;SDS011;46162;57.568;25.814;2022-07-23T05:41:56;13.63;;;9.98;;
59649;SDS011;46162;57.568;25.814;2022-07-23T05:44:25;14.15;;;9.68;;
59649;SDS011;46162;57.568;25.814;2022-07-23T05:47:02;15.90;;;10.50;;
59649;SDS011;46162;57.568;25.814;2022-07-23T05:49:31;14.45;;;9.60;;
59649;SDS011;46162;57.568;25.814;2022-07-23T05:52:16;16.38;;;9.88;;
59649;SDS011;46162;57.568;25.814;2022-07-23T05:55:04;13.52;;;10.43;;
59649;SDS011;46162;57.568;25.814;2022-07-23T05:57:34;14.05;;;10.25;;
59649;SDS011;46162;57.568;25.814;2022-07-23T06:00:04;17.33;;;9.75;;
59649;SDS011;46162;57.568;25.814;2022-07-23T06:02:40;13.75;;;9.93;;
59649;SDS011;46162;57.568;25.814;2022-07-23T06:05:11;14.93;;;10.02;;
59649;SDS011;46162;57.568;25.814;2022-07-23T06:07:40;13.77;;;9.63;;
59649;SDS011;46162;57.568;25.814;2022-07-23T06:10:09;14.50;;;10.05;;
59649;SDS011;46162;57.568;25.814;2022-07-23T06:12:38;14.35;;;9.68;;
59649;SDS011;46162;57.568;25.814;2022-07-23T06:15:08;11.35;;;8.68;;
59649;SDS011;46162;57.568;25.814;2022-07-23T06:17:39;15.70;;;10.05;;
59649;SDS011;46162;57.568;25.814;2022-07-23T06:20:09;14.80;;;9.95;;
59649;SDS011;46162;57.568;25.814;2022-07-23T06:22:39;13.80;;;9.93;;
59649;SDS011;46162;57.568;25.814;2022-07-23T06:25:08;17.17;;;9.50;;
59649;SDS011;46162;57.568;25.814;2022-07-23T06:27:45;15.95;;;9.98;;
59649;SDS011;46162;57.568;25.814;2022-07-23T06:30:14;15.20;;;10.23;;
59649;SDS011;46162;57.568;25.814;2022-07-23T06:32:46;12.52;;;9.45;;
59649;SDS011;46162;57.568;25.814;2022-07-23T06:35:15;15.88;;;9.63;;
59649;SDS011;46162;57.568;25.814;2022-07-23T06:37:46;17.27;;;8.55;;
59649;SDS011;46162;57.568;25.814;2022-07-23T06:40:15;14.50;;;8.75;;
59649;SDS011;46162;57.568;25.814;2022-07-23T06:42:44;13.60;;;7.78;;
59649;SDS011;46162;57.568;25.814;2022-07-23T06:45:20;13.35;;;9.10;;
59649;SDS011;46162;57.568;25.814;2022-07-23T06:47:51;11.73;;;8.45;;
59649;SDS011;46162;57.568;25.814;2022-07-23T06:50:19;12.88;;;8.70;;
59649;SDS011;46162;57.568;25.814;2022-07-23T06:52:49;12.60;;;8.52;;
59649;SDS011;46162;57.568;25.814;2022-07-23T06:55:18;11.70;;;8.25;;
59649;SDS011;46162;57.568;25.814;2022-07-23T06:57:47;14.27;;;8.45;;
59649;SDS011;46162;57.568;25.814;2022-07-23T07:00:15;15.77;;;8.55;;
59649;SDS011;46162;57.568;25.814;2022-07-23T07:02:44;12.27;;;8.52;;
59649;SDS011;46162;57.568;25.814;2022-07-23T07:05:15;13.25;;;8.75;;
59649;SDS011;46162;57.568;25.814;2022-07-23T07:07:43;14.00;;;8.98;;
59649;SDS011;46162;57.568;25.814;2022-07-23T07:10:12;14.55;;;9.32;;
59649;SDS011;46162;57.568;25.814;2022-07-23T07:12:43;10.93;;;8.38;;
59649;SDS011;46162;57.568;25.814;2022-07-23T07:15:12;14.25;;;8.65;;
59649;SDS011;46162;57.568;25.814;2022-07-23T07:17:40;13.07;;;8.23;;
59649;SDS011;46162;57.568;25.814;2022-07-23T07:20:10;13.75;;;8.15;;
59649;SDS011;46162;57.568;25.814;2022-07-23T07:22:40;14.35;;;8.73;;
59649;SDS011;46162;57.568;25.814;2022-07-23T07:25:09;16.50;;;9.43;;
59649;SDS011;46162;57.568;25.814;2022-07-23T07:27:38;17.83;;;8.80;;
59649;SDS011;46162;57.568;25.814;2022-07-23T07:30:08;12.18;;;8.30;;
59649;SDS011;46162;57.568;25.814;2022-07-23T07:32:38;10.45;;;8.45;;
59649;SDS011;46162;57.568;25.814;2022-07-23T07:35:24;11.00;;;8.10;;
59649;SDS011;46162;57.568;25.814;2022-07-23T07:37:55;12.25;;;7.82;;
59649;SDS011;46162;57.568;25.814;2022-07-23T07:40:24;15.07;;;7.95;;
59649;SDS011;46162;57.568;25.814;2022-07-23T07:42:59;9.73;;;7.45;;
59649;SDS011;46162;57.568;25.814;2022-07-23T07:45:30;12.95;;;7.15;;
59649;SDS011;46162;57.568;25.814;2022-07-23T07:47:59;12.80;;;7.95;;
59649;SDS011;46162;57.568;25.814;2022-07-23T07:50:27;11.60;;;7.60;;
59649;SDS011;46162;57.568;25.814;2022-07-23T07:52:58;11.43;;;7.28;;
59649;SDS011;46162;57.568;25.814;2022-07-23T07:57:56;10.00;;;7.05;;
59649;SDS011;46162;57.568;25.814;2022-07-23T08:00:28;10.23;;;6.60;;
59649;SDS011;46162;57.568;25.814;2022-07-23T08:02:58;9.75;;;6.93;;
59649;SDS011;46162;57.568;25.814;2022-07-23T08:07:59;9.45;;;6.75;;
59649;SDS011;46162;57.568;25.814;2022-07-23T08:12:58;12.50;;;6.70;;
59649;SDS011;46162;57.568;25.814;2022-07-23T08:15:29;11.40;;;6.23;;
59649;SDS011;46162;57.568;25.814;2022-07-23T08:17:59;12.10;;;6.47;;
59649;SDS011;46162;57.568;25.814;2022-07-23T08:20:28;13.18;;;6.53;;
59649;SDS011;46162;57.568;25.814;2022-07-23T08:23:00;9.73;;;6.07;;
59649;SDS011;46162;57.568;25.814;2022-07-23T08:25:32;12.15;;;6.70;;
59649;SDS011;46162;57.568;25.814;2022-07-23T08:28:02;12.30;;;6.07;;
59649;SDS011;46162;57.568;25.814;2022-07-23T08:30:33;9.63;;;6.18;;
59649;SDS011;46162;57.568;25.814;2022-07-23T08:33:04;7.65;;;5.80;;
59649;SDS011;46162;57.568;25.814;2022-07-23T08:35:35;8.82;;;6.38;;
59649;SDS011;46162;57.568;25.814;2022-07-23T08:38:07;10.50;;;5.95;;
59649;SDS011;46162;57.568;25.814;2022-07-23T08:40:38;10.45;;;6.53;;
59649;SDS011;46162;57.568;25.814;2022-07-23T08:43:11;18.35;;;6.43;;
59649;SDS011;46162;57.568;25.814;2022-07-23T08:45:41;13.70;;;6.68;;
59649;SDS011;46162;57.568;25.814;2022-07-23T08:48:12;14.07;;;6.53;;
59649;SDS011;46162;57.568;25.814;2022-07-23T08:50:43;9.55;;;5.95;;
59649;SDS011;46162;57.568;25.814;2022-07-23T08:53:16;13.75;;;6.70;;
59649;SDS011;46162;57.568;25.814;2022-07-23T08:55:46;14.55;;;5.38;;
59649;SDS011;46162;57.568;25.814;2022-07-23T09:00:53;12.80;;;6.05;;
59649;SDS011;46162;57.568;25.814;2022-07-23T09:03:24;7.78;;;5.75;;
59649;SDS011;46162;57.568;25.814;2022-07-23T09:05:54;10.13;;;6.13;;
59649;SDS011;46162;57.568;25.814;2022-07-23T09:08:25;10.82;;;6.07;;
59649;SDS011;46162;57.568;25.814;2022-07-23T09:11:03;8.13;;;5.55;;
59649;SDS011;46162;57.568;25.814;2022-07-23T09:13:33;8.05;;;5.22;;
59649;SDS011;46162;57.568;25.814;2022-07-23T09:16:06;10.20;;;5.47;;
59649;SDS011;46162;57.568;25.814;2022-07-23T09:18:40;10.70;;;5.47;;
59649;SDS011;46162;57.568;25.814;2022-07-23T09:21:16;10.48;;;5.63;;
59649;SDS011;46162;57.568;25.814;2022-07-23T09:23:52;9.70;;;5.70;;
59649;SDS011;46162;57.568;25.814;2022-07-23T09:26:24;12.60;;;5.95;;
59649;SDS011;46162;57.568;25.814;2022-07-23T09:28:58;7.65;;;5.88;;
59649;SDS011;46162;57.568;25.814;2022-07-23T09:31:42;10.10;;;5.22;;
59649;SDS011;46162;57.568;25.814;2022-07-23T09:34:17;7.68;;;4.57;;
59649;SDS011;46162;57.568;25.814;2022-07-23T09:36:50;5.97;;;4.90;;
59649;SDS011;46162;57.568;25.814;2022-07-23T09:39:28;11.13;;;5.10;;
59649;SDS011;46162;57.568;25.814;2022-07-23T09:42:11;10.60;;;5.60;;
59649;SDS011;46162;57.568;25.814;2022-07-23T09:44:42;7.03;;;5.05;;
59649;SDS011;46162;57.568;25.814;2022-07-23T09:47:12;6.70;;;5.10;;
59649;SDS011;46162;57.568;25.814;2022-07-23T09:49:41;9.63;;;5.72;;
59649;SDS011;46162;57.568;25.814;2022-07-23T09:52:26;9.35;;;5.25;;
59649;SDS011;46162;57.568;25.814;2022-07-23T09:55:03;9.52;;;5.60;;
59649;SDS011;46162;57.568;25.814;2022-07-23T09:57:34;9.52;;;4.85;;
59649;SDS011;46162;57.568;25.814;2022-07-23T10:00:04;9.43;;;5.30;;
59649;SDS011;46162;57.568;25.814;2022-07-23T10:02:35;6.97;;;4.93;;
59649;SDS011;46162;57.568;25.814;2022-07-23T10:05:23;12.30;;;4.78;;
59649;SDS011;46162;57.568;25.814;2022-07-23T10:08:12;5.20;;;4.70;;
59649;SDS011;46162;57.568;25.814;2022-07-23T10:10:54;7.22;;;5.47;;
59649;SDS011;46162;57.568;25.814;2022-07-23T10:13:42;8.20;;;5.20;;
59649;SDS011;46162;57.568;25.814;2022-07-23T10:16:43;6.47;;;4.97;;
59649;SDS011;46162;57.568;25.814;2022-07-23T10:19:13;8.98;;;4.22;;
59649;SDS011;46162;57.568;25.814;2022-07-23T10:21:45;7.35;;;4.10;;
59649;SDS011;46162;57.568;25.814;2022-07-23T10:24:18;8.15;;;4.10;;
59649;SDS011;46162;57.568;25.814;2022-07-23T10:27:02;8.90;;;4.43;;
59649;SDS011;46162;57.568;25.814;2022-07-23T10:29:43;6.03;;;4.35;;
59649;SDS011;46162;57.568;25.814;2022-07-23T10:32:17;6.82;;;3.90;;
59649;SDS011;46162;57.568;25.814;2022-07-23T10:34:58;5.82;;;3.90;;
59649;SDS011;46162;57.568;25.814;2022-07-23T10:37:37;9.15;;;4.03;;
59649;SDS011;46162;57.568;25.814;2022-07-23T10:40:08;4.57;;;3.50;;
59649;SDS011;46162;57.568;25.814;2022-07-23T10:42:39;6.72;;;3.55;;
59649;SDS011;46162;57.568;25.814;2022-07-23T10:45:31;8.65;;;3.80;;
59649;SDS011;46162;57.568;25.814;2022-07-23T10:59:19;6.13;;;4.30;;
59649;SDS011;46162;57.568;25.814;2022-07-23T11:01:48;6.75;;;4.40;;
59649;SDS011;46162;57.568;25.814;2022-07-23T11:04:18;5.60;;;3.85;;
59649;SDS011;46162;57.568;25.814;2022-07-23T11:07:06;9.35;;;4.40;;
59649;SDS011;46162;57.568;25.814;2022-07-23T11:09:39;5.28;;;4.20;;
59649;SDS011;46162;57.568;25.814;2022-07-23T11:15:02;10.77;;;4.00;;
59649;SDS011;46162;57.568;25.814;2022-07-23T11:17:33;6.65;;;3.70;;
59649;SDS011;46162;57.568;25.814;2022-07-23T11:20:18;7.07;;;4.47;;
59649;SDS011;46162;57.568;25.814;2022-07-23T11:22:49;5.85;;;4.50;;
59649;SDS011;46162;57.568;25.814;2022-07-23T11:25:35;5.30;;;4.60;;
59649;SDS011;46162;57.568;25.814;2022-07-23T11:28:11;5.70;;;4.25;;
59649;SDS011;46162;57.568;25.814;2022-07-23T11:30:45;7.05;;;4.35;;
59649;SDS011;46162;57.568;25.814;2022-07-23T11:33:21;11.57;;;4.70;;
59649;SDS011;46162;57.568;25.814;2022-07-23T11:36:00;10.02;;;4.55;;
59649;SDS011;46162;57.568;25.814;2022-07-23T11:38:31;6.93;;;4.35;;
59649;SDS011;46162;57.568;25.814;2022-07-23T11:41:00;11.17;;;4.40;;
59649;SDS011;46162;57.568;25.814;2022-07-23T11:43:29;7.35;;;4.68;;
59649;SDS011;46162;57.568;25.814;2022-07-23T11:45:59;6.65;;;4.38;;
59649;SDS011;46162;57.568;25.814;2022-07-23T11:48:29;10.25;;;5.30;;
59649;SDS011;46162;57.568;25.814;2022-07-23T11:51:06;10.13;;;5.47;;
59649;SDS011;46162;57.568;25.814;2022-07-23T11:53:36;9.98;;;5.18;;
59649;SDS011;46162;57.568;25.814;2022-07-23T11:56:05;8.38;;;4.93;;
59649;SDS011;46162;57.568;25.814;2022-07-23T11:58:35;9.50;;;4.90;;
59649;SDS011;46162;57.568;25.814;2022-07-23T12:01:06;17.07;;;4.97;;
59649;SDS011;46162;57.568;25.814;2022-07-23T12:03:48;6.18;;;4.10;;
59649;SDS011;46162;57.568;25.814;2022-07-23T12:06:18;7.35;;;4.88;;
59649;SDS011;46162;57.568;25.814;2022-07-23T12:08:47;6.18;;;4.10;;
59649;SDS011;46162;57.568;25.814;2022-07-23T12:11:16;9.07;;;3.92;;
59649;SDS011;46162;57.568;25.814;2022-07-23T12:13:55;4.97;;;3.55;;
59649;SDS011;46162;57.568;25.814;2022-07-23T12:16:26;7.18;;;3.80;;
59649;SDS011;46162;57.568;25.814;2022-07-23T12:18:55;6.20;;;3.72;;
59649;SDS011;46162;57.568;25.814;2022-07-23T12:21:24;4.97;;;3.70;;
59649;SDS011;46162;57.568;25.814;2022-07-23T12:24:05;6.93;;;4.10;;
59649;SDS011;46162;57.568;25.814;2022-07-23T12:26:34;5.50;;;3.58;;
59649;SDS011;46162;57.568;25.814;2022-07-23T12:29:03;5.27;;;3.57;;
59649;SDS011;46162;57.568;25.814;2022-07-23T12:31:34;6.97;;;3.63;;
59649;SDS011;46162;57.568;25.814;2022-07-23T12:34:13;8.15;;;3.65;;
59649;SDS011;46162;57.568;25.814;2022-07-23T12:36:42;9.52;;;3.75;;
59649;SDS011;46162;57.568;25.814;2022-07-23T12:39:12;6.82;;;3.92;;
59649;SDS011;46162;57.568;25.814;2022-07-23T12:41:58;6.28;;;4.28;;
59649;SDS011;46162;57.568;25.814;2022-07-23T12:44:27;8.98;;;4.20;;
59649;SDS011;46162;57.568;25.814;2022-07-23T12:47:00;7.07;;;3.75;;
59649;SDS011;46162;57.568;25.814;2022-07-23T12:49:33;8.18;;;4.43;;
59649;SDS011;46162;57.568;25.814;2022-07-23T12:52:14;5.30;;;4.18;;
59649;SDS011;46162;57.568;25.814;2022-07-23T12:54:45;11.05;;;4.57;;
59649;SDS011;46162;57.568;25.814;2022-07-23T12:57:15;7.97;;;4.75;;
59649;SDS011;46162;57.568;25.814;2022-07-23T12:59:45;13.85;;;4.43;;
59649;SDS011;46162;57.568;25.814;2022-07-23T13:02:15;7.55;;;4.70;;
59649;SDS011;46162;57.568;25.814;2022-07-23T13:04:47;8.82;;;4.70;;
59649;SDS011;46162;57.568;25.814;2022-07-23T13:07:16;9.80;;;4.43;;
59649;SDS011;46162;57.568;25.814;2022-07-23T13:09:47;8.30;;;4.63;;
59649;SDS011;46162;57.568;25.814;2022-07-23T13:12:16;8.63;;;4.78;;
59649;SDS011;46162;57.568;25.814;2022-07-23T13:14:46;8.33;;;5.47;;
59649;SDS011;46162;57.568;25.814;2022-07-23T13:17:17;6.72;;;5.53;;
59649;SDS011;46162;57.568;25.814;2022-07-23T13:19:46;7.38;;;4.70;;
59649;SDS011;46162;57.568;25.814;2022-07-23T13:22:15;8.90;;;5.07;;
59649;SDS011;46162;57.568;25.814;2022-07-23T13:24:44;6.60;;;4.65;;
59649;SDS011;46162;57.568;25.814;2022-07-23T13:27:13;7.18;;;4.65;;
59649;SDS011;46162;57.568;25.814;2022-07-23T13:29:42;11.23;;;4.97;;
59649;SDS011;46162;57.568;25.814;2022-07-23T13:32:12;8.48;;;4.70;;
59649;SDS011;46162;57.568;25.814;2022-07-23T13:34:42;7.80;;;4.68;;
59649;SDS011;46162;57.568;25.814;2022-07-23T13:37:11;9.77;;;4.38;;
59649;SDS011;46162;57.568;25.814;2022-07-23T13:39:40;8.20;;;4.22;;
59649;SDS011;46162;57.568;25.814;2022-07-23T13:42:09;6.63;;;3.70;;
59649;SDS011;46162;57.568;25.814;2022-07-23T13:44:38;5.68;;;3.47;;
59649;SDS011;46162;57.568;25.814;2022-07-23T13:47:07;6.00;;;4.13;;
59649;SDS011;46162;57.568;25.814;2022-07-23T13:49:36;8.15;;;3.85;;
59649;SDS011;46162;57.568;25.814;2022-07-23T13:52:06;14.55;;;3.88;;
59649;SDS011;46162;57.568;25.814;2022-07-23T13:54:35;8.15;;;4.47;;
59649;SDS011;46162;57.568;25.814;2022-07-23T13:57:04;7.47;;;4.20;;
59649;SDS011;46162;57.568;25.814;2022-07-23T13:59:33;8.82;;;4.13;;
59649;SDS011;46162;57.568;25.814;2022-07-23T14:02:02;7.78;;;3.80;;
59649;SDS011;46162;57.568;25.814;2022-07-23T14:04:51;9.00;;;4.25;;
59649;SDS011;46162;57.568;25.814;2022-07-23T14:07:21;8.05;;;4.10;;
59649;SDS011;46162;57.568;25.814;2022-07-23T14:09:51;8.68;;;4.03;;
59649;SDS011;46162;57.568;25.814;2022-07-23T14:12:20;8.55;;;3.95;;
59649;SDS011;46162;57.568;25.814;2022-07-23T14:14:49;9.35;;;3.90;;
59649;SDS011;46162;57.568;25.814;2022-07-23T14:17:19;8.40;;;3.67;;
59649;SDS011;46162;57.568;25.814;2022-07-23T14:19:52;7.78;;;3.53;;
59649;SDS011;46162;57.568;25.814;2022-07-23T14:22:22;7.57;;;2.58;;
59649;SDS011;46162;57.568;25.814;2022-07-23T14:24:51;6.32;;;2.70;;
59649;SDS011;46162;57.568;25.814;2022-07-23T14:27:20;11.32;;;3.40;;
59649;SDS011;46162;57.568;25.814;2022-07-23T14:29:49;8.20;;;2.88;;
59649;SDS011;46162;57.568;25.814;2022-07-23T14:32:18;8.48;;;2.80;;
59649;SDS011;46162;57.568;25.814;2022-07-23T14:34:47;5.82;;;2.83;;
59649;SDS011;46162;57.568;25.814;2022-07-23T14:37:16;6.18;;;3.20;;
59649;SDS011;46162;57.568;25.814;2022-07-23T14:39:47;6.97;;;2.90;;
59649;SDS011;46162;57.568;25.814;2022-07-23T14:42:16;5.53;;;2.10;;
59649;SDS011;46162;57.568;25.814;2022-07-23T14:44:45;8.77;;;2.88;;
59649;SDS011;46162;57.568;25.814;2022-07-23T14:47:14;9.70;;;3.08;;
59649;SDS011;46162;57.568;25.814;2022-07-23T14:49:47;6.07;;;2.15;;
59649;SDS011;46162;57.568;25.814;2022-07-23T14:52:16;11.65;;;2.33;;
59649;SDS011;46162;57.568;25.814;2022-07-23T14:54:46;8.30;;;2.60;;
59649;SDS011;46162;57.568;25.814;2022-07-23T14:59:52;8.02;;;2.08;;
59649;SDS011;46162;57.568;25.814;2022-07-23T15:02:21;13.55;;;2.00;;
59649;SDS011;46162;57.568;25.814;2022-07-23T15:04:50;6.75;;;2.15;;
59649;SDS011;46162;57.568;25.814;2022-07-23T15:07:19;15.02;;;2.90;;
59649;SDS011;46162;57.568;25.814;2022-07-23T15:09:52;18.27;;;3.22;;
59649;SDS011;46162;57.568;25.814;2022-07-23T15:12:21;10.23;;;2.30;;
59649;SDS011;46162;57.568;25.814;2022-07-23T15:14:52;8.43;;;2.23;;
59649;SDS011;46162;57.568;25.814;2022-07-23T15:17:21;6.57;;;1.55;;
59649;SDS011;46162;57.568;25.814;2022-07-23T15:19:52;8.30;;;1.95;;